This is the latest recevied weather packets stored in our database for station/object N2XGL-1. If no packets are shown the sender has not sent any weather packets the latest 10 day(s).
| Time | Temp. | Humidity | Pressure | Rain* | Wind** | Luminosity | Snow |
|---|---|---|---|---|---|---|---|
| 1777925851 | 19.44° C | 31% | 999 hPa | 0 mm | - | - | - |
| 1777925269 | 21.67° C | 26% | 998.6 hPa | 0 mm | - | - | - |
| 1777924719 | 22.22° C | 26% | 998.6 hPa | 0 mm | - | - | - |
| 1777924138 | 23.33° C | 26% | 998.6 hPa | 0 mm | - | - | - |
| 1777923589 | 23.89° C | 28% | 998.8 hPa | 0 mm | - | - | - |
| 1777923174 | 25° C | 25% | 998.7 hPa | 0 mm | - | - | - |
| 1777923108 | 25° C | 25% | 998.7 hPa | 0 mm | - | - | - |
| 1777922593 | 25° C | 26% | 998.7 hPa | 0 mm | - | - | - |
| 1777922064 | 24.44° C | 24% | 998.7 hPa | 0 mm | - | - | - |
| 1777921574 | 24.44° C | 25% | 998.8 hPa | 0 mm | - | - | - |
| 1777921089 | 24.44° C | 24% | 999 hPa | 0 mm | - | - | - |
| 1777920509 | 24.44° C | 26% | 998.8 hPa | 0 mm | - | - | - |
| 1777919959 | 24.44° C | 26% | 999.1 hPa | 0 mm | - | - | - |
| 1777919449 | 23.89° C | 27% | 999.2 hPa | 0 mm | - | - | - |
| 1777918319 | 21.67° C | 28% | 999.6 hPa | 0 mm | - | - | - |
| 1777917841 | 21.11° C | 30% | 999.6 hPa | 0 mm | - | - | - |
| 1777917312 | 20° C | 31% | 999.8 hPa | 0 mm | - | - | - |
| 1777917243 | 20° C | 31% | 999.8 hPa | 0 mm | - | - | - |
| 1777916864 | 20° C | 32% | 999.9 hPa | 0 mm | - | - | - |
| 1777916748 | 20° C | 32% | 999.9 hPa | 0 mm | - | - | - |
| 1777916213 | 19.44° C | 36% | 1000.1 hPa | 0 mm | - | - | - |
| 1777915641 | 18.89° C | 35% | 1000 hPa | 0 mm | - | - | - |
| 1777915064 | 18.33° C | 40% | 1000.3 hPa | 0 mm | - | - | - |
| 1777914561 | 18.33° C | 36% | 1000.3 hPa | 0 mm | - | - | - |
| 1777914014 | 18.33° C | 34% | 1000.3 hPa | 0 mm | - | - | - |
* Rain latest hour (hover to see other rain measurements)
** Current wind speed in m/s (hover to see current wind gust speed)